createdAt,value
2023-01-29T00:00:22.481Z,100400.00
2023-01-29T00:02:51.201Z,100386.00
2023-01-29T00:05:28.532Z,100386.00
2023-01-29T00:07:59.173Z,100388.00
2023-01-29T00:10:28.165Z,100388.00
2023-01-29T00:12:56.754Z,100392.00
2023-01-29T00:15:32.461Z,100356.00
2023-01-29T00:18:01.568Z,100363.00
2023-01-29T00:20:31.270Z,100372.00
2023-01-29T00:23:09.136Z,100361.00
2023-01-29T00:25:37.797Z,100367.00
2023-01-29T00:28:06.859Z,100363.00
2023-01-29T00:30:35.689Z,100355.00
2023-01-29T00:33:05.016Z,100359.00
2023-01-29T00:35:34.515Z,100353.00
2023-01-29T00:38:03.160Z,100345.00
2023-01-29T00:40:55.556Z,100344.00
2023-01-29T00:43:42.000Z,100345.00
2023-01-29T00:46:11.304Z,100341.00
2023-01-29T00:48:39.990Z,100344.00
2023-01-29T00:51:08.594Z,100337.00
2023-01-29T00:53:37.223Z,100336.00
2023-01-29T00:56:08.437Z,100338.00
2023-01-29T00:58:37.056Z,100332.00
2023-01-29T01:01:05.960Z,100333.00
2023-01-29T01:03:35.475Z,100332.00
2023-01-29T01:06:05.925Z,100314.00
2023-01-29T01:08:51.956Z,100322.00
2023-01-29T01:11:24.618Z,100330.00
2023-01-29T01:13:53.154Z,100315.00
2023-01-29T01:16:21.845Z,100313.00
2023-01-29T01:19:09.909Z,100318.00
2023-01-29T01:21:38.552Z,100320.00
2023-01-29T01:24:07.787Z,100319.00
2023-01-29T01:26:37.913Z,100311.00
2023-01-29T01:29:06.945Z,100303.00
2023-01-29T01:31:35.715Z,100317.00
2023-01-29T01:34:04.501Z,100305.00
2023-01-29T01:36:33.228Z,100294.00
2023-01-29T01:39:02.251Z,100306.00
2023-01-29T01:41:31.874Z,100294.00
2023-01-29T01:44:04.453Z,100304.00
2023-01-29T01:46:36.005Z,100289.00
2023-01-29T01:49:11.363Z,100298.00
2023-01-29T01:51:47.686Z,100295.00
2023-01-29T01:54:24.360Z,100289.00
2023-01-29T01:57:04.966Z,100280.00
2023-01-29T01:59:37.202Z,100293.00
2023-01-29T02:02:25.927Z,100278.00
2023-01-29T02:05:12.441Z,100283.00
2023-01-29T02:08:03.244Z,100286.00
2023-01-29T02:10:39.294Z,100279.00
2023-01-29T02:13:08.908Z,100288.00
2023-01-29T02:15:41.951Z,100284.00
2023-01-29T02:18:10.681Z,100274.00
2023-01-29T02:20:43.681Z,100268.00
2023-01-29T02:24:02.745Z,100271.00
2023-01-29T02:26:51.347Z,100265.00
2023-01-29T02:29:35.435Z,100261.00
2023-01-29T02:32:18.684Z,100261.00
2023-01-29T02:35:19.366Z,100242.00
2023-01-29T02:37:58.595Z,100241.00
2023-01-29T02:40:37.098Z,100249.00
2023-01-29T02:43:23.641Z,100253.00
2023-01-29T02:46:04.274Z,100251.00
2023-01-29T02:48:44.745Z,100242.00
2023-01-29T02:51:24.724Z,100228.00
2023-01-29T02:54:02.931Z,100236.00
2023-01-29T02:56:40.414Z,100233.00
2023-01-29T02:59:15.818Z,100222.00
2023-01-29T03:01:53.330Z,100211.00
2023-01-29T03:04:29.569Z,100230.00
2023-01-29T03:07:05.015Z,100219.00
2023-01-29T03:09:40.777Z,100216.00
2023-01-29T03:12:29.284Z,100218.00
2023-01-29T03:15:14.148Z,100214.00
2023-01-29T03:17:55.458Z,100221.00
2023-01-29T03:20:32.242Z,100221.00
2023-01-29T03:23:18.101Z,100214.00
2023-01-29T03:26:04.539Z,100205.00
2023-01-29T03:28:52.101Z,100196.00
2023-01-29T03:31:38.864Z,100183.00
2023-01-29T03:34:16.613Z,100172.00
2023-01-29T03:36:55.177Z,100175.00
2023-01-29T03:39:29.226Z,100170.00
2023-01-29T03:42:06.583Z,100171.00
2023-01-29T03:44:44.478Z,100169.00
2023-01-29T03:47:29.448Z,100156.00
2023-01-29T03:50:07.781Z,100157.00
2023-01-29T03:52:46.641Z,100156.00
2023-01-29T03:55:21.724Z,100155.00
2023-01-29T03:58:02.329Z,100147.00
2023-01-29T04:00:39.227Z,100147.00
2023-01-29T04:03:17.111Z,100145.00
2023-01-29T04:05:58.456Z,100144.00
2023-01-29T04:08:37.490Z,100159.00
2023-01-29T04:11:15.329Z,100170.00
2023-01-29T04:13:46.310Z,100156.00
2023-01-29T04:16:24.054Z,100152.00
2023-01-29T04:19:16.365Z,100149.00
2023-01-29T04:21:50.445Z,100135.00
2023-01-29T04:24:19.646Z,100146.00
2023-01-29T04:27:14.254Z,100132.00
2023-01-29T04:30:05.812Z,100134.00
2023-01-29T04:33:06.479Z,100127.00
2023-01-29T04:35:55.530Z,100116.00
2023-01-29T04:38:42.148Z,100117.00
2023-01-29T04:41:23.283Z,100134.00
2023-01-29T04:44:07.964Z,100101.00
2023-01-29T04:46:50.782Z,100102.00
2023-01-29T04:49:34.440Z,100101.00
2023-01-29T04:52:14.270Z,100108.00
2023-01-29T04:55:01.530Z,100100.00
2023-01-29T04:57:46.298Z,100109.00
2023-01-29T05:00:22.026Z,100102.00
2023-01-29T05:02:52.237Z,100101.00
2023-01-29T05:05:22.419Z,100093.00
2023-01-29T05:07:51.761Z,100096.00
2023-01-29T05:10:26.230Z,100104.00
2023-01-29T05:13:01.912Z,100087.00
2023-01-29T05:15:42.117Z,100099.00
2023-01-29T05:18:11.015Z,100086.00
2023-01-29T05:20:44.091Z,100094.00
2023-01-29T05:23:18.632Z,100093.00
2023-01-29T05:25:49.233Z,100093.00
2023-01-29T05:28:17.433Z,100092.00
2023-01-29T05:30:49.000Z,100107.00
2023-01-29T05:33:22.615Z,100092.00
2023-01-29T05:35:51.852Z,100101.00
2023-01-29T05:38:21.669Z,100089.00
2023-01-29T05:40:52.107Z,100096.00
2023-01-29T05:43:22.977Z,100081.00
2023-01-29T05:45:55.999Z,100076.00
2023-01-29T05:48:25.627Z,100087.00
2023-01-29T05:50:54.229Z,100086.00
2023-01-29T05:53:23.144Z,100079.00
2023-01-29T05:55:53.158Z,100078.00
2023-01-29T05:58:21.893Z,100073.00
2023-01-29T06:00:50.908Z,100067.00
2023-01-29T06:03:19.537Z,100064.00
2023-01-29T06:05:48.168Z,100076.00
2023-01-29T06:08:16.707Z,100067.00
2023-01-29T06:10:45.269Z,100074.00
2023-01-29T06:13:15.244Z,100067.00
2023-01-29T06:15:43.825Z,100067.00
2023-01-29T06:18:12.388Z,100076.00
2023-01-29T06:20:41.153Z,100073.00
2023-01-29T06:23:09.769Z,100076.00
2023-01-29T06:25:38.348Z,100063.00
2023-01-29T06:28:06.950Z,100059.00
2023-01-29T06:30:37.032Z,100052.00
2023-01-29T06:33:05.771Z,100065.00
2023-01-29T06:35:38.227Z,100070.00
2023-01-29T06:38:06.864Z,100066.00
2023-01-29T06:40:35.747Z,100069.00
2023-01-29T06:43:05.419Z,100067.00
2023-01-29T06:45:37.224Z,100067.00
2023-01-29T06:48:27.350Z,100065.00
2023-01-29T06:50:56.213Z,100060.00
2023-01-29T06:53:25.574Z,100060.00
2023-01-29T06:55:55.816Z,100058.00
2023-01-29T06:58:24.673Z,100056.00
2023-01-29T07:00:55.183Z,100070.00
2023-01-29T07:03:23.807Z,100061.00
2023-01-29T07:05:53.434Z,100068.00
2023-01-29T07:08:22.848Z,100076.00
2023-01-29T07:10:53.092Z,100080.00
2023-01-29T07:13:21.792Z,100081.00
2023-01-29T07:15:50.434Z,100080.00
2023-01-29T07:18:24.904Z,100062.00
2023-01-29T07:20:56.830Z,100065.00
2023-01-29T07:23:28.636Z,100075.00
2023-01-29T07:25:57.608Z,100067.00
2023-01-29T07:28:26.261Z,100065.00
2023-01-29T07:31:00.120Z,100074.00
2023-01-29T07:33:31.805Z,100082.00
2023-01-29T07:36:01.540Z,100070.00
2023-01-29T07:38:31.183Z,100076.00
2023-01-29T07:41:00.927Z,100073.00
2023-01-29T07:43:31.174Z,100067.00
2023-01-29T07:46:04.376Z,100063.00
2023-01-29T07:48:37.688Z,100062.00
2023-01-29T07:51:07.178Z,100057.00
2023-01-29T07:53:35.933Z,100058.00
2023-01-29T07:56:04.594Z,100050.00
2023-01-29T07:58:35.587Z,100062.00
2023-01-29T08:01:08.260Z,100061.00
2023-01-29T08:03:38.817Z,100062.00
2023-01-29T08:06:08.851Z,100054.00
2023-01-29T08:08:37.591Z,100057.00
2023-01-29T08:11:06.813Z,100056.00
2023-01-29T08:13:35.624Z,100057.00
2023-01-29T08:16:07.370Z,100058.00
2023-01-29T08:18:42.574Z,100058.00
2023-01-29T08:21:13.085Z,100050.00
2023-01-29T08:23:42.483Z,100055.00
2023-01-29T08:26:11.045Z,100052.00
2023-01-29T08:28:39.868Z,100054.00
2023-01-29T08:31:15.707Z,100052.00
2023-01-29T08:33:45.670Z,100049.00
2023-01-29T08:36:15.124Z,100051.00
2023-01-29T08:38:43.740Z,100052.00
2023-01-29T08:41:12.408Z,100049.00
2023-01-29T08:43:41.060Z,100056.00
2023-01-29T08:46:10.551Z,100051.00
2023-01-29T08:48:39.456Z,100050.00
2023-01-29T08:51:10.443Z,100055.00
2023-01-29T08:53:39.110Z,100041.00
2023-01-29T08:56:08.514Z,100052.00
2023-01-29T08:58:37.197Z,100050.00
2023-01-29T09:01:10.727Z,100039.00
2023-01-29T09:03:43.386Z,100048.00
2023-01-29T09:06:16.025Z,100050.00
2023-01-29T09:08:44.773Z,100042.00
2023-01-29T09:11:13.409Z,100053.00
2023-01-29T09:13:42.078Z,100049.00
2023-01-29T09:16:11.439Z,100048.00
2023-01-29T09:18:40.312Z,100038.00
2023-01-29T09:21:09.278Z,100023.00
2023-01-29T09:23:39.314Z,100016.00
2023-01-29T09:26:09.220Z,100023.00
2023-01-29T09:28:38.666Z,99999.00
2023-01-29T09:31:10.164Z,100002.00
2023-01-29T09:33:38.752Z,99984.00
2023-01-29T09:36:08.967Z,100007.00
2023-01-29T09:38:39.000Z,99991.00
2023-01-29T09:41:25.625Z,99992.00
2023-01-29T09:44:01.604Z,99989.00
2023-01-29T09:46:40.060Z,99977.00
2023-01-29T09:49:19.123Z,99970.00
2023-01-29T09:52:07.639Z,99966.00
2023-01-29T09:54:57.136Z,99978.00
2023-01-29T09:57:58.835Z,99957.00
2023-01-29T10:00:36.668Z,99971.00
2023-01-29T10:03:37.780Z,99980.00
2023-01-29T10:06:43.308Z,99965.00
2023-01-29T10:09:49.044Z,99978.00
2023-01-29T10:12:36.639Z,99979.00
2023-01-29T10:15:22.449Z,99983.00
2023-01-29T10:18:11.346Z,99979.00
2023-01-29T10:21:01.109Z,99976.00
2023-01-29T10:23:35.025Z,99971.00
2023-01-29T10:26:05.397Z,99940.00
2023-01-29T10:28:42.790Z,99971.00
2023-01-29T10:31:21.063Z,99960.00
2023-01-29T10:34:02.005Z,99973.00
2023-01-29T10:36:39.763Z,99964.00
2023-01-29T10:39:18.943Z,99966.00
2023-01-29T10:42:16.605Z,99967.00
2023-01-29T10:45:07.111Z,99969.00
2023-01-29T10:48:08.731Z,99973.00
2023-01-29T10:50:50.169Z,99978.00
2023-01-29T10:53:35.847Z,99956.00
2023-01-29T10:56:23.601Z,99942.00
2023-01-29T10:59:02.525Z,99943.00
2023-01-29T11:01:31.197Z,99945.00
2023-01-29T11:04:06.440Z,99941.00
2023-01-29T11:06:37.443Z,99942.00
2023-01-29T11:09:14.054Z,99945.00
2023-01-29T11:11:49.053Z,99930.00
2023-01-29T11:14:26.471Z,99897.00
2023-01-29T11:17:00.605Z,99934.00
2023-01-29T11:20:02.340Z,99929.00
2023-01-29T11:22:37.011Z,99928.00
2023-01-29T11:25:54.787Z,99925.00
2023-01-29T11:28:45.630Z,99927.00
2023-01-29T11:31:24.805Z,99919.00
2023-01-29T11:34:07.214Z,99916.00
2023-01-29T11:36:39.375Z,99908.00
2023-01-29T11:39:27.603Z,99894.00
2023-01-29T11:42:04.000Z,99912.00
2023-01-29T11:44:44.703Z,99892.00
2023-01-29T11:47:24.184Z,99906.00
2023-01-29T11:49:58.479Z,99900.00
2023-01-29T11:52:40.928Z,99901.00
2023-01-29T11:55:20.082Z,99901.00
2023-01-29T11:57:55.461Z,99887.00
2023-01-29T12:00:29.835Z,99893.00
2023-01-29T12:03:08.796Z,99897.00
2023-01-29T12:05:37.798Z,99892.00
2023-01-29T12:08:24.179Z,99904.00
2023-01-29T12:11:14.052Z,99896.00
2023-01-29T12:13:47.219Z,99902.00
2023-01-29T12:16:25.305Z,99902.00
2023-01-29T12:19:07.728Z,99912.00
2023-01-29T12:21:49.075Z,99907.00
2023-01-29T12:24:37.860Z,99909.00
2023-01-29T12:27:15.971Z,99901.00
2023-01-29T12:29:53.295Z,99919.00
2023-01-29T12:32:37.043Z,99911.00
2023-01-29T12:35:18.904Z,99918.00
2023-01-29T12:37:57.648Z,99912.00
2023-01-29T12:40:32.799Z,99911.00
2023-01-29T12:43:08.462Z,99909.00
2023-01-29T12:45:42.865Z,99904.00
2023-01-29T12:48:17.620Z,99897.00
2023-01-29T12:50:50.473Z,99879.00
2023-01-29T12:53:28.883Z,99887.00
2023-01-29T12:56:04.420Z,99896.00
2023-01-29T12:58:41.160Z,99896.00
2023-01-29T13:01:18.308Z,99885.00
2023-01-29T13:03:56.080Z,99896.00
2023-01-29T13:06:35.478Z,99900.00
2023-01-29T13:09:09.633Z,99898.00
2023-01-29T13:11:46.913Z,99886.00
2023-01-29T13:14:23.841Z,99876.00
2023-01-29T13:17:03.243Z,99872.00
2023-01-29T13:19:40.133Z,99865.00
2023-01-29T13:22:23.729Z,99868.00
2023-01-29T13:25:04.169Z,99864.00
2023-01-29T13:27:38.080Z,99853.00
2023-01-29T13:30:11.423Z,99852.00
2023-01-29T13:32:40.132Z,99850.00
2023-01-29T13:35:17.410Z,99845.00
2023-01-29T13:37:53.900Z,99851.00
2023-01-29T13:40:29.015Z,99843.00
2023-01-29T13:43:00.395Z,99840.00
2023-01-29T13:45:37.524Z,99840.00
2023-01-29T13:48:24.958Z,99837.00
2023-01-29T13:50:57.765Z,99836.00
2023-01-29T13:53:34.696Z,99825.00
2023-01-29T13:56:42.952Z,99826.00
2023-01-29T13:59:25.448Z,99810.00
2023-01-29T14:02:19.871Z,99805.00
2023-01-29T14:04:48.883Z,99794.00
2023-01-29T14:07:52.156Z,99792.00
2023-01-29T14:10:24.825Z,99786.00
2023-01-29T14:12:55.704Z,99784.00
2023-01-29T14:15:35.849Z,99788.00
2023-01-29T14:18:27.399Z,99787.00
2023-01-29T14:21:06.023Z,99767.00
2023-01-29T14:23:46.223Z,99776.00
2023-01-29T14:26:29.923Z,99772.00
2023-01-29T14:29:06.136Z,99764.00
2023-01-29T14:31:50.565Z,99756.00
2023-01-29T14:34:29.188Z,99764.00
2023-01-29T14:37:02.464Z,99769.00
2023-01-29T14:39:38.809Z,99758.00
2023-01-29T14:42:25.050Z,99761.00
2023-01-29T14:45:11.614Z,99769.00
2023-01-29T14:48:05.509Z,99756.00
2023-01-29T14:50:49.402Z,99746.00
2023-01-29T14:53:41.867Z,99753.00
2023-01-29T14:56:18.293Z,99753.00
2023-01-29T14:58:52.329Z,99739.00
2023-01-29T15:01:25.056Z,99745.00
2023-01-29T15:03:59.814Z,99741.00
2023-01-29T15:06:37.000Z,99734.00
2023-01-29T15:09:16.624Z,99734.00
2023-01-29T15:11:57.592Z,99743.00
2023-01-29T15:14:34.831Z,99728.00
2023-01-29T15:17:24.981Z,99733.00
2023-01-29T15:19:53.662Z,99744.00
2023-01-29T15:22:26.097Z,99728.00
2023-01-29T15:25:08.417Z,99729.00
2023-01-29T15:27:37.247Z,99736.00
2023-01-29T15:30:09.601Z,99731.00
2023-01-29T15:32:41.050Z,99730.00
2023-01-29T15:35:16.931Z,99723.00
2023-01-29T15:38:00.203Z,99729.00
2023-01-29T15:40:29.025Z,99710.00
2023-01-29T15:42:57.716Z,99705.00
2023-01-29T15:45:32.208Z,99714.00
2023-01-29T15:48:09.671Z,99710.00
2023-01-29T15:50:43.463Z,99709.00
2023-01-29T15:53:19.305Z,99716.00
2023-01-29T15:55:51.677Z,99700.00
2023-01-29T15:58:31.713Z,99697.00
2023-01-29T16:01:03.307Z,99707.00
2023-01-29T16:03:35.619Z,99702.00
2023-01-29T16:06:07.069Z,99695.00
2023-01-29T16:08:37.188Z,99696.00
2023-01-29T16:11:08.885Z,99690.00
2023-01-29T16:13:44.265Z,99684.00
2023-01-29T16:16:24.954Z,99690.00
2023-01-29T16:19:00.340Z,99682.00
2023-01-29T16:21:36.808Z,99682.00
2023-01-29T16:24:11.935Z,99674.00
2023-01-29T16:26:45.982Z,99676.00
2023-01-29T16:29:18.203Z,99673.00
2023-01-29T16:31:51.617Z,99669.00
2023-01-29T16:34:31.742Z,99649.00
2023-01-29T16:37:03.981Z,99647.00
2023-01-29T16:39:39.579Z,99648.00
2023-01-29T16:42:30.502Z,99645.00
2023-01-29T16:45:02.816Z,99628.00
2023-01-29T16:47:46.041Z,99628.00
2023-01-29T16:50:35.923Z,99631.00
2023-01-29T16:53:14.270Z,99622.00
2023-01-29T16:55:49.424Z,99619.00
2023-01-29T16:58:22.850Z,99610.00
2023-01-29T17:00:57.504Z,99609.00
2023-01-29T17:03:31.671Z,99608.00
2023-01-29T17:06:12.933Z,99607.00
2023-01-29T17:08:45.508Z,99602.00
2023-01-29T17:11:31.753Z,99603.00
2023-01-29T17:14:01.640Z,99606.00
2023-01-29T17:16:33.345Z,99596.00
2023-01-29T17:19:12.530Z,99597.00
2023-01-29T17:21:41.203Z,99589.00
2023-01-29T17:24:10.871Z,99583.00
2023-01-29T17:26:40.445Z,99580.00
2023-01-29T17:29:20.156Z,99577.00
2023-01-29T17:31:52.224Z,99566.00
2023-01-29T17:34:25.537Z,99551.00
2023-01-29T17:36:54.378Z,99550.00
2023-01-29T17:39:25.698Z,99543.00
2023-01-29T17:41:56.728Z,99535.00
2023-01-29T17:44:27.190Z,99544.00
2023-01-29T17:46:57.836Z,99534.00
2023-01-29T17:49:32.320Z,99527.00
2023-01-29T17:52:01.373Z,99522.00
2023-01-29T17:54:30.007Z,99505.00
2023-01-29T17:57:01.443Z,99511.00
2023-01-29T17:59:33.516Z,99505.00
2023-01-29T18:02:02.675Z,99496.00
2023-01-29T18:04:33.023Z,99491.00
2023-01-29T18:07:01.664Z,99493.00
2023-01-29T18:09:30.294Z,99488.00
2023-01-29T18:11:58.945Z,99489.00
2023-01-29T18:14:27.607Z,99489.00
2023-01-29T18:16:57.359Z,99478.00
2023-01-29T18:19:28.307Z,99471.00
2023-01-29T18:21:58.553Z,99471.00
2023-01-29T18:24:27.356Z,99469.00
2023-01-29T18:26:56.102Z,99459.00
2023-01-29T18:29:29.598Z,99463.00
2023-01-29T18:31:58.631Z,99464.00
2023-01-29T18:34:27.458Z,99453.00
2023-01-29T18:36:57.517Z,99453.00
2023-01-29T18:39:26.196Z,99454.00
2023-01-29T18:41:54.760Z,99450.00
2023-01-29T18:44:23.448Z,99432.00
2023-01-29T18:46:52.205Z,99441.00
2023-01-29T18:49:20.972Z,99429.00
2023-01-29T18:51:49.702Z,99418.00
2023-01-29T18:54:21.584Z,99406.00
2023-01-29T18:57:13.843Z,99393.00
2023-01-29T18:59:39.854Z,99390.00
2023-01-29T19:02:08.833Z,99400.00
2023-01-29T19:04:37.403Z,99390.00
2023-01-29T19:07:06.022Z,99382.00
2023-01-29T19:09:36.186Z,99382.00
2023-01-29T19:12:05.694Z,99380.00
2023-01-29T19:14:34.782Z,99358.00
2023-01-29T19:17:04.663Z,99368.00
2023-01-29T19:19:33.424Z,99358.00
2023-01-29T19:22:02.315Z,99358.00
2023-01-29T19:24:36.267Z,99357.00
2023-01-29T19:27:07.141Z,99347.00
2023-01-29T19:29:35.880Z,99333.00
2023-01-29T19:32:04.676Z,99326.00
2023-01-29T19:34:33.303Z,99326.00
2023-01-29T19:37:01.898Z,99328.00
2023-01-29T19:39:33.810Z,99327.00
2023-01-29T19:42:02.555Z,99313.00
2023-01-29T19:44:32.636Z,99307.00
2023-01-29T19:47:01.884Z,99295.00
2023-01-29T19:49:31.241Z,99283.00
2023-01-29T19:52:01.086Z,99280.00
2023-01-29T19:54:30.323Z,99270.00
2023-01-29T19:56:59.022Z,99274.00
2023-01-29T19:59:27.672Z,99267.00
2023-01-29T20:01:57.651Z,99255.00
2023-01-29T20:04:26.813Z,99251.00
2023-01-29T20:06:55.418Z,99248.00
2023-01-29T20:09:24.033Z,99251.00
2023-01-29T20:11:52.619Z,99248.00
2023-01-29T20:14:21.398Z,99243.00
2023-01-29T20:16:50.110Z,99243.00
2023-01-29T20:19:21.163Z,99237.00
2023-01-29T20:21:50.039Z,99242.00
2023-01-29T20:24:19.088Z,99233.00
2023-01-29T20:26:50.857Z,99225.00
2023-01-29T20:29:19.991Z,99225.00
2023-01-29T20:31:49.097Z,99233.00
2023-01-29T20:34:19.390Z,99230.00
2023-01-29T20:36:48.076Z,99224.00
2023-01-29T20:39:16.775Z,99228.00
2023-01-29T20:41:45.515Z,99215.00
2023-01-29T20:44:14.500Z,99214.00
2023-01-29T20:46:43.116Z,99198.00
2023-01-29T20:49:12.414Z,99204.00
2023-01-29T20:51:42.423Z,99211.00
2023-01-29T20:54:12.612Z,99197.00
2023-01-29T20:56:43.092Z,99196.00
2023-01-29T20:59:13.914Z,99189.00
2023-01-29T21:01:43.693Z,99184.00
2023-01-29T21:04:12.351Z,99176.00
2023-01-29T21:06:42.341Z,99167.00
2023-01-29T21:09:10.994Z,99161.00
2023-01-29T21:11:39.614Z,99158.00
2023-01-29T21:14:08.368Z,99158.00
2023-01-29T21:16:37.106Z,99155.00
2023-01-29T21:19:05.734Z,99145.00
2023-01-29T21:21:34.774Z,99145.00
2023-01-29T21:24:05.397Z,99149.00
2023-01-29T21:26:34.726Z,99137.00
2023-01-29T21:29:06.431Z,99131.00
2023-01-29T21:31:35.411Z,99132.00
2023-01-29T21:34:06.048Z,99118.00
2023-01-29T21:36:36.006Z,99118.00
2023-01-29T21:39:17.597Z,99103.00
2023-01-29T21:42:05.154Z,99104.00
2023-01-29T21:44:34.220Z,99091.00
2023-01-29T21:47:12.289Z,99090.00
2023-01-29T21:49:42.780Z,99083.00
2023-01-29T21:52:14.059Z,99073.00
2023-01-29T21:54:46.967Z,99054.00
2023-01-29T21:57:17.188Z,99055.00
2023-01-29T21:59:47.171Z,99038.00
2023-01-29T22:02:23.921Z,99042.00
2023-01-29T22:05:08.686Z,99028.00
2023-01-29T22:07:45.947Z,99030.00
2023-01-29T22:10:17.189Z,99035.00
2023-01-29T22:12:46.202Z,99029.00
2023-01-29T22:15:15.746Z,99021.00
2023-01-29T22:17:44.849Z,99011.00
2023-01-29T22:20:16.266Z,98999.00
2023-01-29T22:22:45.237Z,98998.00
2023-01-29T22:25:20.054Z,98987.00
2023-01-29T22:27:48.745Z,98977.00
2023-01-29T22:30:18.395Z,98970.00
2023-01-29T22:32:47.182Z,98973.00
2023-01-29T22:35:15.939Z,98966.00
2023-01-29T22:37:44.883Z,98969.00
2023-01-29T22:40:16.184Z,98947.00
2023-01-29T22:42:44.960Z,98948.00
2023-01-29T22:45:14.009Z,98943.00
2023-01-29T22:47:42.668Z,98940.00
2023-01-29T22:50:38.268Z,98939.00
2023-01-29T22:53:07.365Z,98943.00
2023-01-29T22:55:37.352Z,98942.00
2023-01-29T22:58:05.981Z,98934.00
2023-01-29T23:00:34.552Z,98930.00
2023-01-29T23:03:03.543Z,98927.00
2023-01-29T23:05:32.271Z,98922.00
2023-01-29T23:08:00.846Z,98915.00
2023-01-29T23:10:29.550Z,98906.00
2023-01-29T23:12:59.495Z,98896.00
2023-01-29T23:15:28.165Z,98884.00
2023-01-29T23:17:56.925Z,98882.00
2023-01-29T23:20:25.635Z,98868.00
2023-01-29T23:22:54.390Z,98871.00
2023-01-29T23:25:43.425Z,98857.00
2023-01-29T23:28:12.449Z,98851.00
2023-01-29T23:30:41.226Z,98852.00
2023-01-29T23:33:12.127Z,98832.00
2023-01-29T23:35:41.423Z,98824.00
2023-01-29T23:38:10.077Z,98816.00
2023-01-29T23:40:40.084Z,98815.00
2023-01-29T23:43:08.695Z,98803.00
2023-01-29T23:45:38.653Z,98797.00
2023-01-29T23:48:07.893Z,98779.00
2023-01-29T23:50:36.504Z,98772.00
2023-01-29T23:53:05.244Z,98752.00
2023-01-29T23:55:33.916Z,98747.00
2023-01-29T23:58:02.522Z,98730.00
